sensor_id;sensor_type;location;lat;lon;timestamp;temperature;humidity
80676;SHT30;70041;46.088;18.268;2023-05-19T00:01:56;12.33;90.15
80676;SHT30;70041;46.088;18.268;2023-05-19T00:04:24;12.28;90.34
80676;SHT30;70041;46.088;18.268;2023-05-19T00:06:50;12.24;90.42
80676;SHT30;70041;46.088;18.268;2023-05-19T00:09:17;12.24;90.33
80676;SHT30;70041;46.088;18.268;2023-05-19T00:11:42;12.20;90.73
80676;SHT30;70041;46.088;18.268;2023-05-19T00:14:08;12.21;90.52
80676;SHT30;70041;46.088;18.268;2023-05-19T00:16:35;12.14;90.70
80676;SHT30;70041;46.088;18.268;2023-05-19T00:19:05;12.12;90.93
80676;SHT30;70041;46.088;18.268;2023-05-19T00:21:34;12.03;91.29
80676;SHT30;70041;46.088;18.268;2023-05-19T00:24:01;12.06;91.18
80676;SHT30;70041;46.088;18.268;2023-05-19T00:26:27;12.04;91.27
80676;SHT30;70041;46.088;18.268;2023-05-19T00:28:52;12.08;91.25
80676;SHT30;70041;46.088;18.268;2023-05-19T00:31:18;12.06;91.19
80676;SHT30;70041;46.088;18.268;2023-05-19T00:33:43;12.10;90.99
80676;SHT30;70041;46.088;18.268;2023-05-19T00:36:09;12.08;91.09
80676;SHT30;70041;46.088;18.268;2023-05-19T00:38:35;12.04;91.25
80676;SHT30;70041;46.088;18.268;2023-05-19T00:41:02;11.98;91.24
80676;SHT30;70041;46.088;18.268;2023-05-19T00:43:27;12.03;91.16
80676;SHT30;70041;46.088;18.268;2023-05-19T00:45:54;12.10;90.86
80676;SHT30;70041;46.088;18.268;2023-05-19T00:48:20;12.10;90.72
80676;SHT30;70041;46.088;18.268;2023-05-19T00:50:46;12.10;90.73
80676;SHT30;70041;46.088;18.268;2023-05-19T00:53:13;12.06;90.83
80676;SHT30;70041;46.088;18.268;2023-05-19T00:55:41;12.08;90.84
80676;SHT30;70041;46.088;18.268;2023-05-19T00:58:09;12.13;90.67
80676;SHT30;70041;46.088;18.268;2023-05-19T01:00:35;12.10;90.91
80676;SHT30;70041;46.088;18.268;2023-05-19T01:03:01;12.10;90.80
80676;SHT30;70041;46.088;18.268;2023-05-19T01:05:27;12.13;90.68
80676;SHT30;70041;46.088;18.268;2023-05-19T01:07:52;12.16;90.57
80676;SHT30;70041;46.088;18.268;2023-05-19T01:10:20;12.14;90.63
80676;SHT30;70041;46.088;18.268;2023-05-19T01:12:46;12.14;90.84
80676;SHT30;70041;46.088;18.268;2023-05-19T01:15:12;12.14;90.62
80676;SHT30;70041;46.088;18.268;2023-05-19T01:17:40;12.16;90.55
80676;SHT30;70041;46.088;18.268;2023-05-19T01:22:54;12.03;91.08
80676;SHT30;70041;46.088;18.268;2023-05-19T01:30:52;11.89;91.09
80676;SHT30;70041;46.088;18.268;2023-05-19T01:33:20;11.86;91.25
80676;SHT30;70041;46.088;18.268;2023-05-19T01:35:47;11.77;91.31
80676;SHT30;70041;46.088;18.268;2023-05-19T01:38:15;11.76;91.40
80676;SHT30;70041;46.088;18.268;2023-05-19T01:40:42;11.67;91.39
80676;SHT30;70041;46.088;18.268;2023-05-19T01:43:17;11.61;91.49
80676;SHT30;70041;46.088;18.268;2023-05-19T01:45:43;11.56;91.64
80676;SHT30;70041;46.088;18.268;2023-05-19T01:48:09;11.51;91.88
80676;SHT30;70041;46.088;18.268;2023-05-19T01:50:37;11.47;91.87
80676;SHT30;70041;46.088;18.268;2023-05-19T01:53:02;11.36;92.11
80676;SHT30;70041;46.088;18.268;2023-05-19T01:55:28;11.36;92.19
80676;SHT30;70041;46.088;18.268;2023-05-19T02:03:08;11.38;92.18
80676;SHT30;70041;46.088;18.268;2023-05-19T02:05:54;11.29;92.29
80676;SHT30;70041;46.088;18.268;2023-05-19T02:08:33;11.25;92.51
80676;SHT30;70041;46.088;18.268;2023-05-19T02:11:06;11.26;92.26
80676;SHT30;70041;46.088;18.268;2023-05-19T02:13:36;11.24;92.43
80676;SHT30;70041;46.088;18.268;2023-05-19T02:16:07;11.14;92.55
80676;SHT30;70041;46.088;18.268;2023-05-19T02:18:32;11.10;92.69
80676;SHT30;70041;46.088;18.268;2023-05-19T02:20:59;11.04;92.83
80676;SHT30;70041;46.088;18.268;2023-05-19T02:23:25;11.04;93.13
80676;SHT30;70041;46.088;18.268;2023-05-19T02:25:50;10.97;93.19
80676;SHT30;70041;46.088;18.268;2023-05-19T02:28:16;10.97;93.38
80676;SHT30;70041;46.088;18.268;2023-05-19T02:30:42;10.97;92.96
80676;SHT30;70041;46.088;18.268;2023-05-19T02:33:07;10.92;92.75
80676;SHT30;70041;46.088;18.268;2023-05-19T02:35:35;10.92;93.08
80676;SHT30;70041;46.088;18.268;2023-05-19T02:38:01;10.94;93.28
80676;SHT30;70041;46.088;18.268;2023-05-19T02:40:26;10.94;93.38
80676;SHT30;70041;46.088;18.268;2023-05-19T02:42:52;10.94;93.35
80676;SHT30;70041;46.088;18.268;2023-05-19T02:45:17;10.94;93.28
80676;SHT30;70041;46.088;18.268;2023-05-19T02:47:43;10.88;93.10
80676;SHT30;70041;46.088;18.268;2023-05-19T02:50:08;10.85;93.25
80676;SHT30;70041;46.088;18.268;2023-05-19T02:52:34;10.83;93.18
80676;SHT30;70041;46.088;18.268;2023-05-19T02:54:59;10.92;92.94
80676;SHT30;70041;46.088;18.268;2023-05-19T02:57:25;10.94;92.80
80676;SHT30;70041;46.088;18.268;2023-05-19T02:59:51;10.91;92.99
80676;SHT30;70041;46.088;18.268;2023-05-19T03:02:16;10.91;93.07
80676;SHT30;70041;46.088;18.268;2023-05-19T03:04:42;11.02;93.02
80676;SHT30;70041;46.088;18.268;2023-05-19T03:07:08;11.07;92.43
80676;SHT30;70041;46.088;18.268;2023-05-19T03:09:37;11.05;91.31
80676;SHT30;70041;46.088;18.268;2023-05-19T03:12:02;11.00;91.24
80676;SHT30;70041;46.088;18.268;2023-05-19T03:14:29;10.98;91.44
80676;SHT30;70041;46.088;18.268;2023-05-19T03:16:54;10.98;91.81
80676;SHT30;70041;46.088;18.268;2023-05-19T03:19:24;11.07;91.97
80676;SHT30;70041;46.088;18.268;2023-05-19T03:21:50;11.16;91.53
80676;SHT30;70041;46.088;18.268;2023-05-19T03:24:15;11.24;91.28
80676;SHT30;70041;46.088;18.268;2023-05-19T03:26:41;11.31;91.16
80676;SHT30;70041;46.088;18.268;2023-05-19T03:29:06;11.35;91.43
80676;SHT30;70041;46.088;18.268;2023-05-19T03:31:32;11.40;91.22
80676;SHT30;70041;46.088;18.268;2023-05-19T03:33:57;11.39;91.76
80676;SHT30;70041;46.088;18.268;2023-05-19T03:36:23;11.42;91.99
80676;SHT30;70041;46.088;18.268;2023-05-19T03:38:48;11.46;92.28
80676;SHT30;70041;46.088;18.268;2023-05-19T03:41:14;11.55;91.99
80676;SHT30;70041;46.088;18.268;2023-05-19T03:43:39;11.49;91.89
80676;SHT30;70041;46.088;18.268;2023-05-19T03:46:05;11.49;91.93
80676;SHT30;70041;46.088;18.268;2023-05-19T03:48:30;11.58;91.79
80676;SHT30;70041;46.088;18.268;2023-05-19T03:50:55;11.67;91.48
80676;SHT30;70041;46.088;18.268;2023-05-19T03:53:22;11.83;91.17
80676;SHT30;70041;46.088;18.268;2023-05-19T03:55:48;11.80;91.27
80676;SHT30;70041;46.088;18.268;2023-05-19T03:58:14;11.83;91.39
80676;SHT30;70041;46.088;18.268;2023-05-19T04:00:40;11.86;90.96
80676;SHT30;70041;46.088;18.268;2023-05-19T04:03:06;11.87;90.81
80676;SHT30;70041;46.088;18.268;2023-05-19T04:05:32;11.96;90.87
80676;SHT30;70041;46.088;18.268;2023-05-19T04:07:58;11.96;90.51
80676;SHT30;70041;46.088;18.268;2023-05-19T04:10:23;12.00;90.28
80676;SHT30;70041;46.088;18.268;2023-05-19T04:12:49;12.00;90.85
80676;SHT30;70041;46.088;18.268;2023-05-19T04:15:14;11.84;91.51
80676;SHT30;70041;46.088;18.268;2023-05-19T04:17:40;11.84;91.59
80676;SHT30;70041;46.088;18.268;2023-05-19T04:20:06;11.87;91.31
80676;SHT30;70041;46.088;18.268;2023-05-19T04:22:31;11.97;91.16
80676;SHT30;70041;46.088;18.268;2023-05-19T04:24:57;12.03;90.89
80676;SHT30;70041;46.088;18.268;2023-05-19T04:27:23;12.08;90.74
80676;SHT30;70041;46.088;18.268;2023-05-19T04:29:48;12.01;91.13
80676;SHT30;70041;46.088;18.268;2023-05-19T04:32:14;12.08;90.91
80676;SHT30;70041;46.088;18.268;2023-05-19T04:34:42;12.04;91.27
80676;SHT30;70041;46.088;18.268;2023-05-19T04:37:13;12.17;90.66
80676;SHT30;70041;46.088;18.268;2023-05-19T04:39:40;12.20;90.46
80676;SHT30;70041;46.088;18.268;2023-05-19T04:42:08;12.34;89.77
80676;SHT30;70041;46.088;18.268;2023-05-19T04:44:34;12.44;89.16
80676;SHT30;70041;46.088;18.268;2023-05-19T04:47:02;12.57;87.99
80676;SHT30;70041;46.088;18.268;2023-05-19T04:49:31;12.58;88.22
80676;SHT30;70041;46.088;18.268;2023-05-19T04:51:56;12.64;87.93
80676;SHT30;70041;46.088;18.268;2023-05-19T04:54:22;12.67;88.14
80676;SHT30;70041;46.088;18.268;2023-05-19T04:56:47;12.69;88.31
80676;SHT30;70041;46.088;18.268;2023-05-19T04:59:12;12.75;88.46
80676;SHT30;70041;46.088;18.268;2023-05-19T05:01:38;12.75;88.02
80676;SHT30;70041;46.088;18.268;2023-05-19T05:04:05;12.86;87.86
80676;SHT30;70041;46.088;18.268;2023-05-19T05:06:31;12.85;88.27
80676;SHT30;70041;46.088;18.268;2023-05-19T05:08:57;12.77;88.71
80676;SHT30;70041;46.088;18.268;2023-05-19T05:11:24;13.02;88.32
80676;SHT30;70041;46.088;18.268;2023-05-19T05:13:50;13.15;88.53
80676;SHT30;70041;46.088;18.268;2023-05-19T05:16:15;13.22;87.63
80676;SHT30;70041;46.088;18.268;2023-05-19T05:18:41;13.40;87.10
80676;SHT30;70041;46.088;18.268;2023-05-19T05:21:07;13.32;87.21
80676;SHT30;70041;46.088;18.268;2023-05-19T05:23:33;13.33;86.87
80676;SHT30;70041;46.088;18.268;2023-05-19T05:25:58;13.39;86.70
80676;SHT30;70041;46.088;18.268;2023-05-19T05:28:25;13.42;87.34
80676;SHT30;70041;46.088;18.268;2023-05-19T05:30:50;13.56;88.48
80676;SHT30;70041;46.088;18.268;2023-05-19T05:33:16;13.70;87.37
80676;SHT30;70041;46.088;18.268;2023-05-19T05:35:42;13.75;87.34
80676;SHT30;70041;46.088;18.268;2023-05-19T05:38:07;13.77;87.12
80676;SHT30;70041;46.088;18.268;2023-05-19T05:40:33;13.82;85.99
80676;SHT30;70041;46.088;18.268;2023-05-19T05:42:58;13.88;86.45
80676;SHT30;70041;46.088;18.268;2023-05-19T05:45:24;13.92;86.04
80676;SHT30;70041;46.088;18.268;2023-05-19T05:47:50;14.00;86.07
80676;SHT30;70041;46.088;18.268;2023-05-19T05:50:16;14.07;85.49
80676;SHT30;70041;46.088;18.268;2023-05-19T05:52:45;14.14;84.84
80676;SHT30;70041;46.088;18.268;2023-05-19T05:55:11;14.18;84.77
80676;SHT30;70041;46.088;18.268;2023-05-19T05:57:37;14.18;84.19
80676;SHT30;70041;46.088;18.268;2023-05-19T06:00:06;14.20;84.74
80676;SHT30;70041;46.088;18.268;2023-05-19T06:02:43;14.26;85.04
80676;SHT30;70041;46.088;18.268;2023-05-19T06:05:10;14.25;84.75
80676;SHT30;70041;46.088;18.268;2023-05-19T06:07:37;14.11;85.67
80676;SHT30;70041;46.088;18.268;2023-05-19T06:10:03;14.26;84.66
80676;SHT30;70041;46.088;18.268;2023-05-19T06:12:29;14.26;85.20
80676;SHT30;70041;46.088;18.268;2023-05-19T06:14:54;14.39;85.15
80676;SHT30;70041;46.088;18.268;2023-05-19T06:17:19;14.58;84.49
80676;SHT30;70041;46.088;18.268;2023-05-19T06:19:45;14.38;84.93
80676;SHT30;70041;46.088;18.268;2023-05-19T06:22:10;14.45;84.15
80676;SHT30;70041;46.088;18.268;2023-05-19T06:24:36;14.62;84.10
80676;SHT30;70041;46.088;18.268;2023-05-19T06:27:01;14.73;83.66
80676;SHT30;70041;46.088;18.268;2023-05-19T06:29:26;14.94;83.47
80676;SHT30;70041;46.088;18.268;2023-05-19T06:31:52;15.06;83.28
80676;SHT30;70041;46.088;18.268;2023-05-19T06:34:17;15.14;83.05
80676;SHT30;70041;46.088;18.268;2023-05-19T06:36:43;15.26;82.49
80676;SHT30;70041;46.088;18.268;2023-05-19T06:39:08;15.43;81.43
80676;SHT30;70041;46.088;18.268;2023-05-19T06:41:33;15.44;81.60
80676;SHT30;70041;46.088;18.268;2023-05-19T06:43:59;15.55;81.69
80676;SHT30;70041;46.088;18.268;2023-05-19T06:46:24;15.66;81.86
80676;SHT30;70041;46.088;18.268;2023-05-19T06:48:50;15.81;81.02
80676;SHT30;70041;46.088;18.268;2023-05-19T06:51:15;15.78;81.28
80676;SHT30;70041;46.088;18.268;2023-05-19T06:53:46;15.77;81.29
80676;SHT30;70041;46.088;18.268;2023-05-19T06:56:12;15.71;81.17
80676;SHT30;70041;46.088;18.268;2023-05-19T06:58:37;15.61;80.92
80676;SHT30;70041;46.088;18.268;2023-05-19T07:01:03;15.57;81.37
80676;SHT30;70041;46.088;18.268;2023-05-19T07:03:29;15.48;81.81
80676;SHT30;70041;46.088;18.268;2023-05-19T07:05:55;15.50;81.98
80676;SHT30;70041;46.088;18.268;2023-05-19T07:08:20;15.51;82.61
80676;SHT30;70041;46.088;18.268;2023-05-19T07:10:46;15.65;82.50
80676;SHT30;70041;46.088;18.268;2023-05-19T07:13:11;15.82;81.96
80676;SHT30;70041;46.088;18.268;2023-05-19T07:15:36;15.86;82.43
80676;SHT30;70041;46.088;18.268;2023-05-19T07:18:02;16.01;81.97
80676;SHT30;70041;46.088;18.268;2023-05-19T07:20:27;16.05;82.24
80676;SHT30;70041;46.088;18.268;2023-05-19T07:22:53;16.04;81.53
80676;SHT30;70041;46.088;18.268;2023-05-19T07:25:18;16.09;81.56
80676;SHT30;70041;46.088;18.268;2023-05-19T07:27:43;16.06;81.18
80676;SHT30;70041;46.088;18.268;2023-05-19T07:30:10;16.10;81.29
80676;SHT30;70041;46.088;18.268;2023-05-19T07:32:35;15.96;81.76
80676;SHT30;70041;46.088;18.268;2023-05-19T07:35:01;16.13;81.76
80676;SHT30;70041;46.088;18.268;2023-05-19T07:37:27;16.32;81.45
80676;SHT30;70041;46.088;18.268;2023-05-19T07:39:52;16.29;80.35
80676;SHT30;70041;46.088;18.268;2023-05-19T07:42:17;16.37;80.03
80676;SHT30;70041;46.088;18.268;2023-05-19T07:44:43;16.33;80.57
80676;SHT30;70041;46.088;18.268;2023-05-19T07:47:08;16.32;80.69
80676;SHT30;70041;46.088;18.268;2023-05-19T07:49:34;16.33;80.52
80676;SHT30;70041;46.088;18.268;2023-05-19T07:51:59;16.32;79.93
80676;SHT30;70041;46.088;18.268;2023-05-19T07:54:25;16.27;80.11
80676;SHT30;70041;46.088;18.268;2023-05-19T07:56:51;16.19;80.90
80676;SHT30;70041;46.088;18.268;2023-05-19T07:59:16;16.42;80.65
80676;SHT30;70041;46.088;18.268;2023-05-19T08:01:42;16.55;80.19
80676;SHT30;70041;46.088;18.268;2023-05-19T08:04:07;16.59;79.99
80676;SHT30;70041;46.088;18.268;2023-05-19T08:06:33;16.77;79.37
80676;SHT30;70041;46.088;18.268;2023-05-19T08:08:59;17.06;78.32
80676;SHT30;70041;46.088;18.268;2023-05-19T08:11:25;17.12;78.19
80676;SHT30;70041;46.088;18.268;2023-05-19T08:13:50;17.12;78.44
80676;SHT30;70041;46.088;18.268;2023-05-19T08:16:16;17.21;77.33
80676;SHT30;70041;46.088;18.268;2023-05-19T08:18:42;17.39;76.97
80676;SHT30;70041;46.088;18.268;2023-05-19T08:21:07;17.58;76.69
80676;SHT30;70041;46.088;18.268;2023-05-19T08:23:33;17.41;77.39
80676;SHT30;70041;46.088;18.268;2023-05-19T08:25:59;17.43;77.09
80676;SHT30;70041;46.088;18.268;2023-05-19T08:28:24;17.43;76.70
80676;SHT30;70041;46.088;18.268;2023-05-19T08:30:50;17.39;76.93
80676;SHT30;70041;46.088;18.268;2023-05-19T08:33:16;17.42;76.88
80676;SHT30;70041;46.088;18.268;2023-05-19T08:35:45;17.55;76.00
80676;SHT30;70041;46.088;18.268;2023-05-19T08:38:10;17.58;76.54
80676;SHT30;70041;46.088;18.268;2023-05-19T08:40:36;17.48;77.53
80676;SHT30;70041;46.088;18.268;2023-05-19T08:43:02;17.29;77.61
80676;SHT30;70041;46.088;18.268;2023-05-19T08:45:27;17.15;79.58
80676;SHT30;70041;46.088;18.268;2023-05-19T08:47:54;17.15;79.34
80676;SHT30;70041;46.088;18.268;2023-05-19T08:50:23;17.27;79.50
80676;SHT30;70041;46.088;18.268;2023-05-19T08:52:55;17.34;80.30
80676;SHT30;70041;46.088;18.268;2023-05-19T08:58:20;16.91;80.47
80676;SHT30;70041;46.088;18.268;2023-05-19T09:00:46;16.76;82.14
80676;SHT30;70041;46.088;18.268;2023-05-19T09:03:13;16.77;82.73
80676;SHT30;70041;46.088;18.268;2023-05-19T09:05:40;16.84;83.28
80676;SHT30;70041;46.088;18.268;2023-05-19T09:08:05;17.01;83.48
80676;SHT30;70041;46.088;18.268;2023-05-19T09:10:31;17.31;81.31
80676;SHT30;70041;46.088;18.268;2023-05-19T09:12:57;17.89;81.01
80676;SHT30;70041;46.088;18.268;2023-05-19T09:15:25;18.44;78.57
80676;SHT30;70041;46.088;18.268;2023-05-19T09:18:05;18.92;77.43
80676;SHT30;70041;46.088;18.268;2023-05-19T09:20:31;18.65;73.71
80676;SHT30;70041;46.088;18.268;2023-05-19T09:22:58;18.81;77.06
80676;SHT30;70041;46.088;18.268;2023-05-19T09:25:24;18.87;74.80
80676;SHT30;70041;46.088;18.268;2023-05-19T09:27:52;18.88;77.60
80676;SHT30;70041;46.088;18.268;2023-05-19T09:30:18;18.91;75.90
80676;SHT30;70041;46.088;18.268;2023-05-19T09:32:44;19.09;75.24
80676;SHT30;70041;46.088;18.268;2023-05-19T09:35:11;18.84;75.00
80676;SHT30;70041;46.088;18.268;2023-05-19T09:37:40;18.85;75.12
80676;SHT30;70041;46.088;18.268;2023-05-19T09:40:07;19.20;72.88
80676;SHT30;70041;46.088;18.268;2023-05-19T09:42:36;19.40;75.46
80676;SHT30;70041;46.088;18.268;2023-05-19T09:45:02;19.26;76.11
80676;SHT30;70041;46.088;18.268;2023-05-19T09:47:35;19.66;72.13
80676;SHT30;70041;46.088;18.268;2023-05-19T09:50:06;20.04;69.54
80676;SHT30;70041;46.088;18.268;2023-05-19T09:52:36;20.20;72.15
80676;SHT30;70041;46.088;18.268;2023-05-19T09:55:04;20.41;74.59
80676;SHT30;70041;46.088;18.268;2023-05-19T09:57:34;20.44;73.16
80676;SHT30;70041;46.088;18.268;2023-05-19T10:00:05;20.32;73.86
80676;SHT30;70041;46.088;18.268;2023-05-19T10:02:58;20.28;71.90
80676;SHT30;70041;46.088;18.268;2023-05-19T10:05:26;20.11;71.66
80676;SHT30;70041;46.088;18.268;2023-05-19T10:07:53;20.06;72.00
80676;SHT30;70041;46.088;18.268;2023-05-19T10:10:20;20.41;69.92
80676;SHT30;70041;46.088;18.268;2023-05-19T10:12:47;20.66;72.27
80676;SHT30;70041;46.088;18.268;2023-05-19T10:15:17;20.62;70.48
80676;SHT30;70041;46.088;18.268;2023-05-19T10:17:44;20.71;70.91
80676;SHT30;70041;46.088;18.268;2023-05-19T10:22:40;20.82;70.16
80676;SHT30;70041;46.088;18.268;2023-05-19T10:25:07;20.90;69.65
80676;SHT30;70041;46.088;18.268;2023-05-19T10:27:35;21.09;68.49
80676;SHT30;70041;46.088;18.268;2023-05-19T10:30:06;21.27;69.63
80676;SHT30;70041;46.088;18.268;2023-05-19T10:32:33;21.43;66.56
80676;SHT30;70041;46.088;18.268;2023-05-19T10:45:59;21.90;61.31
80676;SHT30;70041;46.088;18.268;2023-05-19T10:48:25;21.73;61.48
80676;SHT30;70041;46.088;18.268;2023-05-19T10:50:55;21.58;63.43
80676;SHT30;70041;46.088;18.268;2023-05-19T10:53:20;21.60;66.06
80676;SHT30;70041;46.088;18.268;2023-05-19T10:55:50;21.91;59.57
80676;SHT30;70041;46.088;18.268;2023-05-19T10:58:48;22.32;59.21
80676;SHT30;70041;46.088;18.268;2023-05-19T11:01:20;22.28;62.34
80676;SHT30;70041;46.088;18.268;2023-05-19T11:03:53;22.25;58.92
80676;SHT30;70041;46.088;18.268;2023-05-19T11:08:58;22.23;55.87
80676;SHT30;70041;46.088;18.268;2023-05-19T11:11:25;22.28;59.07
80676;SHT30;70041;46.088;18.268;2023-05-19T11:13:54;21.95;61.74
80676;SHT30;70041;46.088;18.268;2023-05-19T11:16:33;21.57;63.11
80676;SHT30;70041;46.088;18.268;2023-05-19T11:18:59;21.44;63.49
80676;SHT30;70041;46.088;18.268;2023-05-19T11:21:40;21.57;61.61
80676;SHT30;70041;46.088;18.268;2023-05-19T11:24:08;21.62;62.72
80676;SHT30;70041;46.088;18.268;2023-05-19T11:26:41;21.61;64.65
80676;SHT30;70041;46.088;18.268;2023-05-19T11:29:07;21.61;62.18
80676;SHT30;70041;46.088;18.268;2023-05-19T11:31:34;21.46;61.84
80676;SHT30;70041;46.088;18.268;2023-05-19T11:34:00;21.22;59.08
80676;SHT30;70041;46.088;18.268;2023-05-19T11:36:27;21.07;60.87
80676;SHT30;70041;46.088;18.268;2023-05-19T11:38:53;21.39;60.48
80676;SHT30;70041;46.088;18.268;2023-05-19T11:41:19;21.92;61.60
80676;SHT30;70041;46.088;18.268;2023-05-19T11:43:46;22.31;58.80
80676;SHT30;70041;46.088;18.268;2023-05-19T11:46:12;22.84;55.81
80676;SHT30;70041;46.088;18.268;2023-05-19T11:48:38;23.20;57.42
80676;SHT30;70041;46.088;18.268;2023-05-19T11:51:05;22.87;55.75
80676;SHT30;70041;46.088;18.268;2023-05-19T11:53:31;23.18;58.42
80676;SHT30;70041;46.088;18.268;2023-05-19T11:56:02;23.06;56.03
80676;SHT30;70041;46.088;18.268;2023-05-19T11:58:28;23.03;57.22
80676;SHT30;70041;46.088;18.268;2023-05-19T12:00:53;22.72;59.71
80676;SHT30;70041;46.088;18.268;2023-05-19T12:03:21;22.56;59.45
80676;SHT30;70041;46.088;18.268;2023-05-19T12:05:52;22.36;59.04
80676;SHT30;70041;46.088;18.268;2023-05-19T12:08:17;22.12;61.83
80676;SHT30;70041;46.088;18.268;2023-05-19T12:10:47;22.08;61.66
80676;SHT30;70041;46.088;18.268;2023-05-19T12:13:13;22.63;59.68
80676;SHT30;70041;46.088;18.268;2023-05-19T12:15:39;23.24;60.27
80676;SHT30;70041;46.088;18.268;2023-05-19T12:18:04;22.80;57.91
80676;SHT30;70041;46.088;18.268;2023-05-19T12:20:31;22.77;59.56
80676;SHT30;70041;46.088;18.268;2023-05-19T12:22:59;23.13;59.38
80676;SHT30;70041;46.088;18.268;2023-05-19T12:25:25;22.94;57.87
80676;SHT30;70041;46.088;18.268;2023-05-19T12:27:50;22.67;58.77
80676;SHT30;70041;46.088;18.268;2023-05-19T12:30:25;22.28;60.59
80676;SHT30;70041;46.088;18.268;2023-05-19T12:32:53;22.04;61.65
80676;SHT30;70041;46.088;18.268;2023-05-19T12:35:18;22.15;60.05
80676;SHT30;70041;46.088;18.268;2023-05-19T12:37:44;21.91;61.65
80676;SHT30;70041;46.088;18.268;2023-05-19T12:40:14;21.70;63.55
80676;SHT30;70041;46.088;18.268;2023-05-19T12:42:43;21.78;61.19
80676;SHT30;70041;46.088;18.268;2023-05-19T12:45:09;23.65;56.26
80676;SHT30;70041;46.088;18.268;2023-05-19T12:47:35;23.58;54.04
80676;SHT30;70041;46.088;18.268;2023-05-19T12:50:05;23.62;56.09
80676;SHT30;70041;46.088;18.268;2023-05-19T12:52:41;23.35;58.69
80676;SHT30;70041;46.088;18.268;2023-05-19T12:55:07;23.89;56.92
80676;SHT30;70041;46.088;18.268;2023-05-19T12:57:39;24.49;53.34
80676;SHT30;70041;46.088;18.268;2023-05-19T13:00:07;25.08;55.83
80676;SHT30;70041;46.088;18.268;2023-05-19T13:02:52;25.83;50.62
80676;SHT30;70041;46.088;18.268;2023-05-19T13:05:19;25.78;51.51
80676;SHT30;70041;46.088;18.268;2023-05-19T13:08:04;25.96;50.62
80676;SHT30;70041;46.088;18.268;2023-05-19T13:10:30;26.99;48.47
80676;SHT30;70041;46.088;18.268;2023-05-19T13:12:56;27.23;46.05
80676;SHT30;70041;46.088;18.268;2023-05-19T13:15:24;27.22;46.64
80676;SHT30;70041;46.088;18.268;2023-05-19T13:17:50;26.19;49.62
80676;SHT30;70041;46.088;18.268;2023-05-19T13:20:16;24.61;53.22
80676;SHT30;70041;46.088;18.268;2023-05-19T13:22:41;23.69;57.51
80676;SHT30;70041;46.088;18.268;2023-05-19T13:25:07;23.14;53.97
80676;SHT30;70041;46.088;18.268;2023-05-19T13:27:33;22.87;59.80
80676;SHT30;70041;46.088;18.268;2023-05-19T13:29:59;22.74;56.17
80676;SHT30;70041;46.088;18.268;2023-05-19T13:32:25;24.17;54.43
80676;SHT30;70041;46.088;18.268;2023-05-19T13:34:50;24.08;55.16
80676;SHT30;70041;46.088;18.268;2023-05-19T13:37:15;23.66;55.70
80676;SHT30;70041;46.088;18.268;2023-05-19T13:39:41;23.24;57.12
80676;SHT30;70041;46.088;18.268;2023-05-19T13:42:06;23.34;55.74
80676;SHT30;70041;46.088;18.268;2023-05-19T13:44:32;23.30;56.43
80676;SHT30;70041;46.088;18.268;2023-05-19T13:46:57;23.61;59.52
80676;SHT30;70041;46.088;18.268;2023-05-19T13:49:23;23.61;57.86
80676;SHT30;70041;46.088;18.268;2023-05-19T13:51:49;23.95;56.05
80676;SHT30;70041;46.088;18.268;2023-05-19T13:54:14;23.75;56.16
80676;SHT30;70041;46.088;18.268;2023-05-19T13:56:40;23.75;57.88
80676;SHT30;70041;46.088;18.268;2023-05-19T13:59:05;23.74;57.97
80676;SHT30;70041;46.088;18.268;2023-05-19T14:01:31;24.32;56.12
80676;SHT30;70041;46.088;18.268;2023-05-19T14:03:56;25.03;54.44
80676;SHT30;70041;46.088;18.268;2023-05-19T14:06:22;25.37;52.37
80676;SHT30;70041;46.088;18.268;2023-05-19T14:08:47;26.03;47.28
80676;SHT30;70041;46.088;18.268;2023-05-19T14:11:19;26.45;46.95
80676;SHT30;70041;46.088;18.268;2023-05-19T14:13:47;27.01;47.77
80676;SHT30;70041;46.088;18.268;2023-05-19T14:16:14;26.88;48.10
80676;SHT30;70041;46.088;18.268;2023-05-19T14:18:39;27.67;45.89
80676;SHT30;70041;46.088;18.268;2023-05-19T14:21:05;28.56;43.49
80676;SHT30;70041;46.088;18.268;2023-05-19T14:23:31;29.37;44.36
80676;SHT30;70041;46.088;18.268;2023-05-19T14:25:56;30.19;41.77
80676;SHT30;70041;46.088;18.268;2023-05-19T14:28:21;30.58;39.27
80676;SHT30;70041;46.088;18.268;2023-05-19T14:30:47;31.47;39.21
80676;SHT30;70041;46.088;18.268;2023-05-19T14:33:12;31.85;37.84
80676;SHT30;70041;46.088;18.268;2023-05-19T14:35:38;31.82;37.35
80676;SHT30;70041;46.088;18.268;2023-05-19T14:38:03;29.25;41.96
80676;SHT30;70041;46.088;18.268;2023-05-19T14:40:29;27.69;43.67
80676;SHT30;70041;46.088;18.268;2023-05-19T14:42:54;28.61;43.57
80676;SHT30;70041;46.088;18.268;2023-05-19T14:45:20;29.49;41.73
80676;SHT30;70041;46.088;18.268;2023-05-19T14:47:45;30.36;39.63
80676;SHT30;70041;46.088;18.268;2023-05-19T14:50:11;30.22;40.14
80676;SHT30;70041;46.088;18.268;2023-05-19T14:52:36;30.69;38.83
80676;SHT30;70041;46.088;18.268;2023-05-19T14:55:02;28.55;43.62
80676;SHT30;70041;46.088;18.268;2023-05-19T14:57:27;29.15;39.02
80676;SHT30;70041;46.088;18.268;2023-05-19T14:59:52;30.19;38.98
80676;SHT30;70041;46.088;18.268;2023-05-19T15:02:18;30.53;35.98
80676;SHT30;70041;46.088;18.268;2023-05-19T15:04:46;29.96;37.40
80676;SHT30;70041;46.088;18.268;2023-05-19T15:07:12;29.10;42.63
80676;SHT30;70041;46.088;18.268;2023-05-19T15:09:37;29.31;40.51
80676;SHT30;70041;46.088;18.268;2023-05-19T15:12:03;29.13;41.38
80676;SHT30;70041;46.088;18.268;2023-05-19T15:14:28;28.80;42.12
80676;SHT30;70041;46.088;18.268;2023-05-19T15:16:54;28.56;42.01
80676;SHT30;70041;46.088;18.268;2023-05-19T15:19:19;29.03;42.57
80676;SHT30;70041;46.088;18.268;2023-05-19T15:21:45;29.60;40.13
80676;SHT30;70041;46.088;18.268;2023-05-19T15:24:11;30.19;39.52
80676;SHT30;70041;46.088;18.268;2023-05-19T15:26:36;30.43;40.26
80676;SHT30;70041;46.088;18.268;2023-05-19T15:29:02;29.64;39.24
80676;SHT30;70041;46.088;18.268;2023-05-19T15:31:27;28.52;42.89
80676;SHT30;70041;46.088;18.268;2023-05-19T15:33:53;27.23;46.06
80676;SHT30;70041;46.088;18.268;2023-05-19T15:36:18;28.27;42.36
80676;SHT30;70041;46.088;18.268;2023-05-19T15:38:43;26.64;47.39
80676;SHT30;70041;46.088;18.268;2023-05-19T15:41:09;26.30;47.72
80676;SHT30;70041;46.088;18.268;2023-05-19T15:43:35;25.75;51.30
80676;SHT30;70041;46.088;18.268;2023-05-19T15:46:00;24.81;53.25